createdAt,value
2023-04-06T00:01:23.317Z,99743.84
2023-04-06T00:03:50.876Z,99744.50
2023-04-06T00:06:18.339Z,99731.63
2023-04-06T00:08:45.684Z,99738.56
2023-04-06T00:11:13.112Z,99745.81
2023-04-06T00:13:40.324Z,99738.88
2023-04-06T00:16:07.898Z,99743.00
2023-04-06T00:18:35.338Z,99746.94
2023-04-06T00:21:04.733Z,99751.38
2023-04-06T00:23:31.927Z,99736.91
2023-04-06T00:25:59.379Z,99738.88
2023-04-06T00:28:27.035Z,99733.91
2023-04-06T00:30:56.291Z,99737.56
2023-04-06T00:33:24.485Z,99727.03
2023-04-06T00:35:52.302Z,99730.47
2023-04-06T00:38:20.429Z,99728.16
2023-04-06T00:40:47.891Z,99723.38
2023-04-06T00:43:15.998Z,99724.72
2023-04-06T00:45:43.850Z,99723.72
2023-04-06T00:48:13.014Z,99728.97
2023-04-06T00:50:40.535Z,99722.72
2023-04-06T00:53:07.690Z,99722.72
2023-04-06T00:55:36.925Z,99717.44
2023-04-06T00:58:05.062Z,99724.38
2023-04-06T01:00:42.640Z,99726.34
2023-04-06T01:03:15.474Z,99721.25
2023-04-06T01:05:45.219Z,99726.66
2023-04-06T01:08:20.175Z,99719.75
2023-04-06T01:10:47.936Z,99716.94
2023-04-06T01:13:29.874Z,99716.13
2023-04-06T01:16:02.379Z,99714.47
2023-04-06T01:18:44.614Z,99709.19
2023-04-06T01:21:17.325Z,99714.47
2023-04-06T01:24:03.195Z,99712.00
2023-04-06T01:26:41.666Z,99711.19
2023-04-06T01:29:10.769Z,99708.22
2023-04-06T01:31:39.204Z,99713.50
2023-04-06T01:34:07.133Z,99712.81
2023-04-06T01:36:34.838Z,99711.19
2023-04-06T01:39:15.765Z,99716.94
2023-04-06T01:41:43.572Z,99710.84
2023-04-06T01:44:11.145Z,99707.53
2023-04-06T01:46:38.647Z,99712.31
2023-04-06T01:49:07.499Z,99715.97
2023-04-06T01:51:37.388Z,99711.13
2023-04-06T01:54:07.541Z,99698.31
2023-04-06T01:56:53.564Z,99702.56
2023-04-06T01:59:35.055Z,99706.53
2023-04-06T02:02:08.548Z,99700.59
2023-04-06T02:04:38.503Z,99702.59
2023-04-06T02:07:10.989Z,99701.25
2023-04-06T02:09:38.335Z,99703.03
2023-04-06T02:12:10.369Z,99697.94
2023-04-06T02:14:38.294Z,99701.56
2023-04-06T02:17:06.100Z,99695.81
2023-04-06T02:19:33.354Z,99698.94
2023-04-06T02:22:01.281Z,99695.63
2023-04-06T02:24:28.439Z,99691.16
2023-04-06T02:26:56.009Z,99689.69
2023-04-06T02:29:23.629Z,99692.66
2023-04-06T02:31:52.745Z,99692.97
2023-04-06T02:34:21.109Z,99694.94
2023-04-06T02:36:51.828Z,99696.09
2023-04-06T02:39:19.127Z,99692.28
2023-04-06T02:41:47.141Z,99689.47
2023-04-06T02:44:19.967Z,99686.34
2023-04-06T02:46:48.332Z,99693.59
2023-04-06T02:49:15.428Z,99694.88
2023-04-06T02:51:43.136Z,99693.25
2023-04-06T02:54:32.321Z,99705.75
2023-04-06T02:57:00.900Z,99706.09
2023-04-06T02:59:37.479Z,99704.72
2023-04-06T03:02:28.674Z,99704.72
2023-04-06T03:05:05.778Z,99710.34
2023-04-06T03:07:39.012Z,99711.50
2023-04-06T03:10:10.813Z,99716.91
2023-04-06T03:12:38.446Z,99712.94
2023-04-06T03:15:12.224Z,99712.94
2023-04-06T03:17:43.887Z,99710.63
2023-04-06T03:20:18.931Z,99716.84
2023-04-06T03:22:46.473Z,99720.78
2023-04-06T03:25:16.391Z,99719.13
2023-04-06T03:27:45.923Z,99712.22
2023-04-06T03:30:18.552Z,99710.91
2023-04-06T03:32:46.089Z,99723.06
2023-04-06T03:35:13.520Z,99726.03
2023-04-06T03:37:41.072Z,99718.47
2023-04-06T03:40:08.875Z,99718.75
2023-04-06T03:42:36.466Z,99727.13
2023-04-06T03:45:10.697Z,99724.63
2023-04-06T03:47:45.109Z,99718.88
2023-04-06T03:50:12.975Z,99720.69
2023-04-06T03:52:41.352Z,99717.22
2023-04-06T03:55:09.230Z,99716.72
2023-04-06T03:57:38.551Z,99720.31
2023-04-06T04:00:06.869Z,99722.78
2023-04-06T04:02:40.851Z,99727.56
2023-04-06T04:05:08.722Z,99724.56
2023-04-06T04:07:37.999Z,99724.56
2023-04-06T04:10:07.202Z,99724.38
2023-04-06T04:12:34.639Z,99719.91
2023-04-06T04:15:03.980Z,99727.78
2023-04-06T04:17:31.919Z,99717.28
2023-04-06T04:19:59.065Z,99725.16
2023-04-06T04:22:26.439Z,99717.13
2023-04-06T04:24:53.631Z,99725.16
2023-04-06T04:27:21.737Z,99727.13
2023-04-06T04:29:53.076Z,99724.13
2023-04-06T04:32:21.610Z,99720.53
2023-04-06T04:34:50.325Z,99716.09
2023-04-06T04:37:31.681Z,99725.50
2023-04-06T04:39:59.033Z,99711.97
2023-04-06T04:42:26.473Z,99727.78
2023-04-06T04:44:57.202Z,99728.44
2023-04-06T04:47:43.046Z,99710.31
2023-04-06T04:50:13.041Z,99717.25
2023-04-06T04:52:44.238Z,99711.28
2023-04-06T04:55:16.164Z,99720.84
2023-04-06T04:57:47.675Z,99718.03
2023-04-06T05:00:16.366Z,99720.53
2023-04-06T05:02:45.384Z,99718.56
2023-04-06T05:05:16.977Z,99714.63
2023-04-06T05:07:46.494Z,99717.94
2023-04-06T05:10:23.585Z,99715.16
2023-04-06T05:12:58.696Z,99715.34
2023-04-06T05:15:30.380Z,99716.72
2023-04-06T05:18:05.647Z,99714.88
2023-04-06T05:20:36.197Z,99710.44
2023-04-06T05:23:04.191Z,99710.16
2023-04-06T05:25:32.963Z,99718.34
2023-04-06T05:28:09.030Z,99714.75
2023-04-06T05:30:39.023Z,99716.06
2023-04-06T05:33:06.748Z,99716.13
2023-04-06T05:35:47.124Z,99705.94
2023-04-06T05:38:14.886Z,99720.31
2023-04-06T05:40:42.576Z,99707.63
2023-04-06T05:43:14.600Z,99705.66
2023-04-06T05:45:47.942Z,99701.03
2023-04-06T05:48:15.722Z,99705.88
2023-04-06T05:50:42.849Z,99697.84
2023-04-06T05:53:13.117Z,99699.16
2023-04-06T05:55:44.445Z,99705.75
2023-04-06T05:58:18.109Z,99701.16
2023-04-06T06:00:46.923Z,99702.31
2023-04-06T06:03:16.866Z,99707.78
2023-04-06T06:05:49.682Z,99702.16
2023-04-06T06:08:24.467Z,99702.16
2023-04-06T06:10:52.618Z,99701.53
2023-04-06T06:13:24.537Z,99698.91
2023-04-06T06:15:52.761Z,99702.84
2023-04-06T06:18:22.099Z,99700.91
2023-04-06T06:20:52.353Z,99706.84
2023-04-06T06:23:19.678Z,99705.34
2023-04-06T06:25:47.893Z,99701.06
2023-04-06T06:28:18.434Z,99710.63
2023-04-06T06:30:45.748Z,99704.88
2023-04-06T06:33:17.924Z,99701.75
2023-04-06T06:35:45.345Z,99710.31
2023-04-06T06:38:12.770Z,99697.63
2023-04-06T06:40:41.789Z,99701.75
2023-04-06T06:43:09.298Z,99698.28
2023-04-06T06:46:11.790Z,99694.00
2023-04-06T06:48:41.200Z,99695.81
2023-04-06T06:51:08.536Z,99698.31
2023-04-06T06:53:36.206Z,99700.59
2023-04-06T06:56:03.540Z,99701.25
2023-04-06T06:58:31.696Z,99695.50
2023-04-06T07:01:00.971Z,99695.97
2023-04-06T07:03:32.092Z,99699.09
2023-04-06T07:06:00.792Z,99700.41
2023-04-06T07:08:28.617Z,99701.91
2023-04-06T07:10:58.774Z,99705.53
2023-04-06T07:13:28.253Z,99700.59
2023-04-06T07:15:57.916Z,99698.97
2023-04-06T07:18:26.080Z,99695.16
2023-04-06T07:20:53.181Z,99692.03
2023-04-06T07:23:20.860Z,99692.69
2023-04-06T07:25:48.269Z,99702.25
2023-04-06T07:28:16.440Z,99697.97
2023-04-06T07:30:43.756Z,99707.72
2023-04-06T07:33:12.907Z,99706.19
2023-04-06T07:35:42.166Z,99700.78
2023-04-06T07:38:10.934Z,99696.69
2023-04-06T07:40:38.370Z,99705.91
2023-04-06T07:43:06.065Z,99707.53
2023-04-06T07:45:33.263Z,99696.50
2023-04-06T07:48:03.197Z,99698.66
2023-04-06T07:50:31.404Z,99704.25
2023-04-06T07:52:59.256Z,99701.28
2023-04-06T07:55:26.631Z,99707.06
2023-04-06T07:57:53.945Z,99701.44
2023-04-06T08:00:21.722Z,99697.66
2023-04-06T08:02:49.242Z,99697.66
2023-04-06T08:05:16.991Z,99693.03
2023-04-06T08:07:44.689Z,99693.03
2023-04-06T08:10:12.074Z,99695.66
2023-04-06T08:12:39.489Z,99695.50
2023-04-06T08:15:07.258Z,99690.53
2023-04-06T08:17:35.042Z,99686.72
2023-04-06T08:20:04.467Z,99685.56
2023-04-06T08:22:32.885Z,99684.75
2023-04-06T08:25:00.114Z,99679.44
2023-04-06T08:27:27.578Z,99685.06
2023-04-06T08:29:54.733Z,99681.72
2023-04-06T08:32:22.202Z,99672.81
2023-04-06T08:34:49.353Z,99676.75
2023-04-06T08:37:16.745Z,99675.44
2023-04-06T08:39:43.905Z,99672.28
2023-04-06T08:42:21.465Z,99666.13
2023-04-06T08:44:52.048Z,99663.94
2023-04-06T08:47:22.384Z,99667.34
2023-04-06T08:49:54.769Z,99662.31
2023-04-06T08:52:22.342Z,99661.25
2023-04-06T08:54:49.451Z,99648.56
2023-04-06T08:57:19.526Z,99650.00
2023-04-06T08:59:47.339Z,99643.56
2023-04-06T09:02:20.049Z,99650.81
2023-04-06T09:04:53.198Z,99642.06
2023-04-06T09:07:21.783Z,99640.00
2023-04-06T09:09:48.943Z,99641.25
2023-04-06T09:12:27.844Z,99641.19
2023-04-06T09:14:56.901Z,99632.59
2023-04-06T09:17:30.873Z,99635.19
2023-04-06T09:19:58.322Z,99630.25
2023-04-06T09:22:26.711Z,99628.56
2023-04-06T09:24:55.571Z,99629.69
2023-04-06T09:27:35.764Z,99630.97
2023-04-06T09:30:15.210Z,99626.31
2023-04-06T09:32:54.413Z,99617.47
2023-04-06T09:35:23.226Z,99620.25
2023-04-06T09:37:53.171Z,99620.75
2023-04-06T09:40:22.042Z,99615.97
2023-04-06T09:42:58.452Z,99615.97
2023-04-06T09:45:27.306Z,99613.22
2023-04-06T09:47:57.318Z,99613.69
2023-04-06T09:50:27.725Z,99619.41
2023-04-06T09:52:59.744Z,99610.19
2023-04-06T09:55:42.998Z,99609.56
2023-04-06T09:58:20.045Z,99608.81
2023-04-06T10:01:06.443Z,99609.75
2023-04-06T10:04:14.589Z,99610.69
2023-04-06T10:06:42.698Z,99605.19
2023-04-06T10:09:10.530Z,99604.19
2023-04-06T10:11:38.777Z,99602.53
2023-04-06T10:14:07.511Z,99598.06
2023-04-06T10:16:35.795Z,99599.81
2023-04-06T10:19:17.775Z,99593.78
2023-04-06T10:21:51.475Z,99598.19
2023-04-06T10:24:19.080Z,99586.44
2023-04-06T10:27:04.979Z,99582.03
2023-04-06T10:29:47.608Z,99584.63
2023-04-06T10:32:14.933Z,99580.13
2023-04-06T10:34:42.381Z,99564.47
2023-04-06T10:37:20.036Z,99575.72
2023-04-06T10:39:59.172Z,99577.47
2023-04-06T10:42:39.349Z,99572.28
2023-04-06T10:45:19.543Z,99576.09
2023-04-06T10:47:46.884Z,99569.06
2023-04-06T10:50:18.212Z,99569.31
2023-04-06T10:53:03.289Z,99569.91
2023-04-06T10:55:31.992Z,99572.28
2023-04-06T10:57:59.136Z,99562.50
2023-04-06T11:00:33.467Z,99559.28
2023-04-06T11:03:10.498Z,99564.97
2023-04-06T11:05:38.117Z,99570.25
2023-04-06T11:08:05.571Z,99574.13
2023-04-06T11:10:32.905Z,99565.22
2023-04-06T11:13:00.156Z,99570.50
2023-04-06T11:15:38.110Z,99561.06
2023-04-06T11:18:06.892Z,99555.50
2023-04-06T11:20:34.426Z,99549.03
2023-04-06T11:23:02.649Z,99550.31
2023-04-06T11:25:33.387Z,99555.00
2023-04-06T11:28:01.227Z,99561.31
2023-04-06T11:30:28.938Z,99562.47
2023-04-06T11:33:03.654Z,99559.47
2023-04-06T11:35:33.922Z,99558.50
2023-04-06T11:38:05.302Z,99561.69
2023-04-06T11:40:34.156Z,99563.06
2023-04-06T11:43:04.895Z,99557.75
2023-04-06T11:45:43.990Z,99558.56
2023-04-06T11:48:23.238Z,99552.81
2023-04-06T11:51:04.644Z,99556.09
2023-04-06T11:53:31.915Z,99547.41
2023-04-06T11:56:00.594Z,99550.63
2023-04-06T11:58:31.183Z,99557.59
2023-04-06T12:01:05.759Z,99556.97
2023-04-06T12:03:33.141Z,99562.00
2023-04-06T12:06:00.861Z,99566.03
2023-04-06T12:08:28.416Z,99559.09
2023-04-06T12:10:56.079Z,99553.78
2023-04-06T12:13:23.519Z,99553.28
2023-04-06T12:15:51.136Z,99543.75
2023-04-06T12:18:18.344Z,99548.09
2023-04-06T12:20:45.932Z,99542.81
2023-04-06T12:23:13.102Z,99546.03
2023-04-06T12:25:42.152Z,99545.47
2023-04-06T12:28:09.557Z,99546.75
2023-04-06T12:30:37.037Z,99557.16
2023-04-06T12:33:04.675Z,99552.13
2023-04-06T12:35:35.487Z,99557.25
2023-04-06T12:38:02.711Z,99555.31
2023-04-06T12:40:30.926Z,99555.03
2023-04-06T12:42:58.162Z,99554.59
2023-04-06T12:45:25.786Z,99551.69
2023-04-06T12:47:53.101Z,99547.75
2023-04-06T12:50:20.506Z,99547.38
2023-04-06T12:52:49.044Z,99550.22
2023-04-06T12:55:16.908Z,99546.94
2023-04-06T12:57:44.298Z,99537.41
2023-04-06T13:00:12.644Z,99541.59
2023-04-06T13:02:40.004Z,99534.94
2023-04-06T13:05:08.048Z,99537.94
2023-04-06T13:07:35.302Z,99529.66
2023-04-06T13:10:03.267Z,99531.94
2023-04-06T13:12:30.561Z,99526.66
2023-04-06T13:14:58.006Z,99520.44
2023-04-06T13:17:25.234Z,99526.16
2023-04-06T13:19:52.690Z,99531.16
2023-04-06T13:22:20.979Z,99530.56
2023-04-06T13:24:48.360Z,99524.34
2023-04-06T13:27:15.685Z,99518.88
2023-04-06T13:29:43.252Z,99518.44
2023-04-06T13:32:11.248Z,99518.13
2023-04-06T13:34:38.737Z,99508.84
2023-04-06T13:37:05.946Z,99504.38
2023-04-06T13:39:33.556Z,99504.91
2023-04-06T13:42:02.153Z,99501.44
2023-04-06T13:44:30.849Z,99493.69
2023-04-06T13:46:59.383Z,99496.97
2023-04-06T13:49:27.587Z,99492.03
2023-04-06T13:51:54.721Z,99496.41
2023-04-06T13:54:22.070Z,99485.84
2023-04-06T13:56:49.245Z,99490.19
2023-04-06T13:59:16.729Z,99497.81
2023-04-06T14:01:43.920Z,99499.09
2023-04-06T14:04:11.323Z,99502.03
2023-04-06T14:06:38.724Z,99500.88
2023-04-06T14:09:06.336Z,99503.06
2023-04-06T14:11:33.560Z,99504.38
2023-04-06T14:14:01.191Z,99508.69
2023-04-06T14:16:32.927Z,99515.44
2023-04-06T14:19:00.296Z,99506.00
2023-04-06T14:21:27.461Z,99510.66
2023-04-06T14:23:55.807Z,99509.97
2023-04-06T14:26:23.769Z,99509.00
2023-04-06T14:28:51.502Z,99511.28
2023-04-06T14:31:18.851Z,99507.47
2023-04-06T14:33:47.253Z,99508.94
2023-04-06T14:36:14.668Z,99510.75
2023-04-06T14:38:42.143Z,99507.91
2023-04-06T14:41:16.324Z,99508.28
2023-04-06T14:43:44.008Z,99503.00
2023-04-06T14:46:11.331Z,99503.81
2023-04-06T14:48:38.848Z,99515.75
2023-04-06T14:51:06.428Z,99514.28
2023-04-06T14:53:34.426Z,99514.09
2023-04-06T14:56:04.410Z,99517.25
2023-04-06T14:58:32.323Z,99512.31
2023-04-06T15:01:02.353Z,99507.72
2023-04-06T15:03:31.122Z,99512.31
2023-04-06T15:05:58.829Z,99507.72
2023-04-06T15:08:26.449Z,99512.16
2023-04-06T15:10:55.481Z,99507.03
2023-04-06T15:13:22.932Z,99509.56
2023-04-06T15:15:52.405Z,99516.69
2023-04-06T15:18:20.938Z,99511.75
2023-04-06T15:20:48.625Z,99513.44
2023-04-06T15:23:16.062Z,99517.09
2023-04-06T15:25:43.074Z,99519.75
2023-04-06T15:28:11.004Z,99515.78
2023-04-06T15:30:38.896Z,99510.88
2023-04-06T15:33:09.204Z,99509.41
2023-04-06T15:35:43.765Z,99511.75
2023-04-06T15:38:11.570Z,99504.66
2023-04-06T15:40:49.156Z,99501.63
2023-04-06T15:43:16.988Z,99507.28
2023-04-06T15:45:44.145Z,99501.34
2023-04-06T15:48:11.947Z,99504.81
2023-04-06T15:50:39.074Z,99504.38
2023-04-06T15:53:07.258Z,99507.66
2023-04-06T15:55:34.708Z,99507.66
2023-04-06T15:58:07.048Z,99511.66
2023-04-06T16:00:34.330Z,99517.94
2023-04-06T16:03:02.398Z,99517.94
2023-04-06T16:05:34.880Z,99523.22
2023-04-06T16:08:08.242Z,99516.94
2023-04-06T16:10:35.430Z,99512.97
2023-04-06T16:13:04.000Z,99516.13
2023-04-06T16:15:31.061Z,99517.28
2023-04-06T16:17:58.543Z,99513.47
2023-04-06T16:20:25.827Z,99516.94
2023-04-06T16:22:53.494Z,99517.63
2023-04-06T16:25:20.551Z,99525.56
2023-04-06T16:27:48.195Z,99511.38
2023-04-06T16:30:15.588Z,99516.13
2023-04-06T16:32:44.488Z,99521.88
2023-04-06T16:35:11.637Z,99524.22
2023-04-06T16:37:39.025Z,99513.38
2023-04-06T16:40:07.397Z,99524.91
2023-04-06T16:42:34.896Z,99510.56
2023-04-06T16:45:04.486Z,99515.69
2023-04-06T16:47:32.117Z,99515.41
2023-04-06T16:50:05.471Z,99518.69
2023-04-06T16:52:34.833Z,99515.03
2023-04-06T16:55:02.208Z,99514.91
2023-04-06T16:57:29.831Z,99516.06
2023-04-06T16:59:57.280Z,99507.84
2023-04-06T17:02:25.393Z,99508.53
2023-04-06T17:04:53.033Z,99506.56
2023-04-06T17:07:25.489Z,99506.75
2023-04-06T17:09:52.798Z,99509.09
2023-04-06T17:12:20.301Z,99504.97
2023-04-06T17:14:47.430Z,99512.88
2023-04-06T17:17:14.973Z,99510.91
2023-04-06T17:19:42.092Z,99507.16
2023-04-06T17:22:09.415Z,99507.63
2023-04-06T17:24:36.501Z,99502.69
2023-04-06T17:27:04.149Z,99505.69
2023-04-06T17:29:31.280Z,99509.97
2023-04-06T17:31:58.795Z,99511.63
2023-04-06T17:34:26.172Z,99506.97
2023-04-06T17:36:53.520Z,99509.44
2023-04-06T17:39:20.975Z,99516.19
2023-04-06T17:41:48.460Z,99517.72
2023-04-06T17:44:15.717Z,99512.28
2023-04-06T17:46:43.413Z,99510.28
2023-04-06T17:49:10.644Z,99512.28
2023-04-06T17:51:38.234Z,99504.38
2023-04-06T17:54:05.476Z,99513.94
2023-04-06T17:56:32.795Z,99509.50
2023-04-06T17:58:59.960Z,99510.28
2023-04-06T18:01:28.522Z,99519.22
2023-04-06T18:03:56.202Z,99513.94
2023-04-06T18:06:25.660Z,99511.94
2023-04-06T18:08:54.530Z,99512.28
2023-04-06T18:11:22.068Z,99510.66
2023-04-06T18:13:49.684Z,99507.34
2023-04-06T18:16:20.261Z,99517.25
2023-04-06T18:18:47.896Z,99510.16
2023-04-06T18:21:15.591Z,99517.41
2023-04-06T18:23:43.027Z,99510.84
2023-04-06T18:26:19.896Z,99513.16
2023-04-06T18:28:47.833Z,99512.34
2023-04-06T18:31:15.723Z,99517.59
2023-04-06T18:33:43.863Z,99521.22
2023-04-06T18:36:11.595Z,99518.78
2023-04-06T18:38:44.214Z,99513.50
2023-04-06T18:41:11.829Z,99507.38
2023-04-06T18:43:40.163Z,99515.31
2023-04-06T18:46:13.418Z,99505.59
2023-04-06T18:48:41.931Z,99507.38
2023-04-06T18:51:10.424Z,99508.53
2023-04-06T18:53:39.779Z,99504.94
2023-04-06T18:56:19.848Z,99495.19
2023-04-06T18:58:48.506Z,99501.47
2023-04-06T19:01:29.105Z,99505.72
2023-04-06T19:03:59.875Z,99498.81
2023-04-06T19:06:28.790Z,99498.81
2023-04-06T19:08:56.694Z,99494.38
2023-04-06T19:11:25.426Z,99497.69
2023-04-06T19:13:57.050Z,99499.47
2023-04-06T19:16:27.714Z,99490.09
2023-04-06T19:18:55.891Z,99495.88
2023-04-06T19:21:26.267Z,99483.66
2023-04-06T19:23:55.673Z,99492.22
2023-04-06T19:26:25.276Z,99482.84
2023-04-06T19:28:52.315Z,99486.94
2023-04-06T19:31:20.293Z,99483.34
2023-04-06T19:33:48.473Z,99481.66
2023-04-06T19:36:16.390Z,99484.81
2023-04-06T19:38:43.717Z,99473.81
2023-04-06T19:41:11.482Z,99482.53
2023-04-06T19:43:38.522Z,99473.81
2023-04-06T19:46:06.001Z,99472.16
2023-04-06T19:48:33.873Z,99473.81
2023-04-06T19:51:02.317Z,99469.81
2023-04-06T19:53:29.451Z,99480.38
2023-04-06T19:55:56.730Z,99468.16
2023-04-06T19:58:23.823Z,99469.81
2023-04-06T20:00:51.365Z,99467.00
2023-04-06T20:03:18.550Z,99462.91
2023-04-06T20:05:46.766Z,99473.09
2023-04-06T20:08:14.214Z,99466.22
2023-04-06T20:10:42.547Z,99467.00
2023-04-06T20:13:09.756Z,99469.16
2023-04-06T20:15:37.275Z,99464.22
2023-04-06T20:18:04.443Z,99467.69
2023-04-06T20:20:31.918Z,99456.31
2023-04-06T20:22:59.301Z,99469.50
2023-04-06T20:25:27.132Z,99467.00
2023-04-06T20:27:54.324Z,99472.28
2023-04-06T20:30:22.368Z,99470.66
2023-04-06T20:32:49.529Z,99468.16
2023-04-06T20:35:17.047Z,99464.56
2023-04-06T20:37:44.152Z,99454.00
2023-04-06T20:40:12.721Z,99455.66
2023-04-06T20:42:41.958Z,99451.38
2023-04-06T20:45:10.005Z,99452.34
2023-04-06T20:47:37.366Z,99452.72
2023-04-06T20:50:06.989Z,99453.69
2023-04-06T20:52:34.735Z,99442.16
2023-04-06T20:55:04.657Z,99439.53
2023-04-06T20:57:32.059Z,99442.16
2023-04-06T20:59:59.446Z,99442.31
2023-04-06T21:02:26.608Z,99439.66
2023-04-06T21:04:54.050Z,99438.88
2023-04-06T21:07:21.315Z,99438.50
2023-04-06T21:09:48.630Z,99434.91
2023-04-06T21:12:15.911Z,99438.50
2023-04-06T21:14:43.338Z,99435.88
2023-04-06T21:17:11.399Z,99436.88
2023-04-06T21:19:38.752Z,99432.44
2023-04-06T21:22:06.133Z,99424.34
2023-04-06T21:24:33.440Z,99432.91
2023-04-06T21:27:00.484Z,99429.44
2023-04-06T21:29:32.721Z,99434.06
2023-04-06T21:31:59.815Z,99431.59
2023-04-06T21:34:27.151Z,99436.06
2023-04-06T21:36:54.287Z,99427.97
2023-04-06T21:39:23.936Z,99423.06
2023-04-06T21:41:51.630Z,99416.13
2023-04-06T21:44:19.330Z,99417.09
2023-04-06T21:46:46.465Z,99416.13
2023-04-06T21:49:13.807Z,99413.66
2023-04-06T21:51:41.670Z,99406.91
2023-04-06T21:54:09.056Z,99405.91
2023-04-06T21:56:36.105Z,99407.56
2023-04-06T21:59:03.511Z,99414.00
2023-04-06T22:01:30.568Z,99412.19
2023-04-06T22:03:58.043Z,99405.06
2023-04-06T22:06:25.816Z,99405.91
2023-04-06T22:08:53.251Z,99405.91
2023-04-06T22:11:21.087Z,99402.28
2023-04-06T22:13:48.461Z,99395.03
2023-04-06T22:16:15.640Z,99401.59
2023-04-06T22:18:42.989Z,99397.31
2023-04-06T22:21:10.323Z,99387.75
2023-04-06T22:23:42.099Z,99383.31
2023-04-06T22:26:11.721Z,99391.41
2023-04-06T22:28:39.169Z,99388.91
2023-04-06T22:31:06.311Z,99385.44
2023-04-06T22:33:33.867Z,99392.91
2023-04-06T22:36:01.038Z,99390.41
2023-04-06T22:38:28.376Z,99385.50
2023-04-06T22:40:55.586Z,99374.97
2023-04-06T22:43:22.994Z,99374.97
2023-04-06T22:45:50.246Z,99368.03
2023-04-06T22:48:17.705Z,99370.00
2023-04-06T22:50:44.792Z,99370.00
2023-04-06T22:53:12.104Z,99364.75
2023-04-06T22:55:42.400Z,99362.75
2023-04-06T22:58:09.725Z,99357.47
2023-04-06T23:00:36.717Z,99367.69
2023-04-06T23:03:04.268Z,99364.22
2023-04-06T23:05:32.593Z,99349.38
2023-04-06T23:07:59.924Z,99348.09
2023-04-06T23:10:27.063Z,99344.63
2023-04-06T23:12:54.394Z,99343.34
2023-04-06T23:15:21.403Z,99345.97
2023-04-06T23:17:48.793Z,99339.88
2023-04-06T23:20:16.159Z,99342.00
2023-04-06T23:22:43.455Z,99340.00
2023-04-06T23:25:10.887Z,99346.63
2023-04-06T23:27:38.325Z,99345.97
2023-04-06T23:30:06.637Z,99342.38
2023-04-06T23:32:34.204Z,99340.72
2023-04-06T23:35:03.437Z,99339.53
2023-04-06T23:37:30.990Z,99342.81
2023-04-06T23:39:58.175Z,99333.78
2023-04-06T23:42:28.614Z,99335.44
2023-04-06T23:44:56.454Z,99332.16
2023-04-06T23:47:24.178Z,99334.13
2023-04-06T23:49:51.434Z,99328.88
2023-04-06T23:52:18.822Z,99323.59
2023-04-06T23:54:46.099Z,99326.38
2023-04-06T23:57:13.402Z,99322.13
2023-04-06T23:59:40.673Z,99314.03
